Nearby METAR Reports

 

KSJC - San Jose, California, USA
Distance from station: NE 14km
Updated: 20/04/2024 04:53
Few Clouds
Few Clouds
 Wind from WNW
Wind: WNW 7 km/h
Temperature: 14°C
Dew Point: 11°C
Humidity: 82%
Barometer: 1015.9 hPa
Clouds: Few Clouds
Visibility: 16 km
Cloud details: Few Clouds 427 m
2024/04/20 07:53 KSJC 200753Z AUTO 30004KT 10SM FEW014 14/11 A3000 RMK AO2 SLP158 T01440106 402280100
KNUQ - Moffett Nas/Mtn, California, USA
Distance from station: N 14km
Updated: 20/04/2024 04:55
Mostly cloudy
Mostly cloudy
 Wind from NNE
Wind: NNE 7 km/h
Temperature: 13°C
Dew Point: 11°C
Humidity: 88%
Barometer: 1015.9 hPa
Clouds: Mostly cloudy
Visibility: 14 km
Cloud details: Mostly cloudy 366 m
2024/04/20 07:55 KNUQ 200755Z AUTO 02004KT 9SM BKN012 13/11 A3000 RMK AO2
 
KPAO - Palo Alto, California, USA
Distance from station: NNW 23km
Updated: 20/04/2024 00:47
NOT Current
Clear
Clear
 Wind from NW
Wind: NW 9 km/h
Temperature: 13°C
Dew Point: 10°C
Humidity: 82%
Barometer: 1014.9 hPa
Clouds: Clear
Visibility: 16 km
2024/04/20 03:47 KPAO 200347Z 32005KT 10SM SKC 13/10 A2997 RMK LAST
KRHV - San Jose/Reid, California, USA
Distance from station: ENE 19km
Updated: 20/04/2024 01:50
NOT Current
Clear
Clear
 Wind from WNW
Wind: WNW 6 km/h
Temperature: 15°C
Dew Point: 9°C
Humidity: 68%
Barometer: 1015.6 hPa
Clouds: Clear
Visibility: 16 km
2024/04/20 04:50 KRHV 200450Z 29003KT 10SM SKC 15/09 A2999 RMK LAST
 
KOAK - Oakland, California, USA
Distance from station: NNW 50km
Updated: 20/04/2024 04:53
Partly cloudy
Partly cloudy
 Wind from NW
Wind: NW 19 km/h
Temperature: 11°C
Dew Point: 11°C
Humidity: 100%
Barometer: 1016.6 hPa
Clouds: Partly cloudy
Visibility: 16 km
Cloud details: Partly cloudy 274 m
Partly cloudy 4572 m
2024/04/20 07:53 KOAK 200753Z 31010KT 10SM SCT009 SCT150 11/11 A3002 RMK AO2 SLP164 T01060106 401720106
KSQL - San Carlos Airpo, California, USA
Distance from station: NW 34km
Updated: 20/04/2024 04:55
Clear
Clear
 Wind from calm
Wind: Calm
Temperature: 12°C
Dew Point: 10°C
Humidity: 88%
Barometer: 1015.9 hPa
Clouds: Clear
Visibility: 16 km
2024/04/20 07:55 KSQL 200755Z AUTO 00000KT 10SM CLR 12/10 A3000 RMK AO2
 
KSFO - San Francisco, California, USA
Distance from station: NW 49km
Updated: 20/04/2024 04:56
Partly cloudy
Partly cloudy
 Wind from WNW
Wind: WNW 19 km/h
Temperature: 11°C
Dew Point: 9°C
Humidity: 88%
Barometer: 1015.9 hPa
Clouds: Partly cloudy
Visibility: 16 km
Cloud details: Few Clouds 213 m
Partly cloudy 6096 m
2024/04/20 07:56 KSFO 200756Z 30010KT 10SM FEW007 SCT200 11/09 A3000 RMK AO2 SLP159 T01110089 401830100
KE16 - San Martin, California, USA
Distance from station: ESE 43km
Updated: 20/04/2024 04:55
Mist, Mostly cloudy
Mist, Mostly cloudy
 Wind from W
Wind: W 6 km/h
Temperature: 9°C
Dew Point: 9°C
Humidity: 100%
Barometer: 1016.6 hPa
Summary: Mist
Clouds: Mostly cloudy
Visibility: 10 km
Cloud details: Mostly cloudy 488 m
2024/04/20 07:55 KE16 200755Z AUTO 26003KT 6SM BR BKN016 09/09 A3002 RMK AO2 PWINO PNO
 
KWVI - Watsonville, California, USA
Distance from station: SSE 44km
Updated: 20/04/2024 04:53
Clear
Clear
 Wind from calm
Wind: Calm
Temperature: 8°C
Dew Point: 8°C
Humidity: 100%
Barometer: 1016.3 hPa
Clouds: Clear
Visibility: 16 km
2024/04/20 07:53 KWVI 200753Z AUTO 00000KT 10SM CLR 08/08 A3001 RMK AO2 SLP163 T00830078 401670083
KHAF - Half Moon Bay, California, USA
Distance from station: WNW 50km
Updated: 20/04/2024 04:55
Mist, Overcast
Mist, Overcast
 Wind from calm
Wind: Calm
Temperature: 11°C
Dew Point: 11°C
Humidity: 100%
Barometer: 1016.6 hPa
Summary: Mist
Clouds: Overcast
Visibility: 8 km
Cloud details: Overcast 152 m
2024/04/20 07:55 KHAF 200755Z AUTO 00000KT 5SM BR OVC005 11/11 A3002 RMK AO2
 
KHWD - Hayward, California, USA
Distance from station: N 44km
Updated: 20/04/2024 05:07
Partly cloudy
Partly cloudy
 Wind from NW
Wind: NW 11 km/h
Temperature: 12°C
Dew Point: 9°C
Humidity: 82%
Barometer: 1015.9 hPa
Clouds: Partly cloudy
Visibility: 16 km
Cloud details: Partly cloudy 335 m
2024/04/20 08:07 KHWD 200807Z AUTO 32006KT 10SM SCT011 12/09 A3000 RMK AO2 T01220094
KLVK - Livermore, California, USA
Distance from station: NNE 51km
Updated: 20/04/2024 04:53
Clear
Clear
 Wind from WNW
Wind: WNW 11 km/h
Temperature: 12°C
Dew Point: 9°C
Humidity: 82%
Barometer: 1015.2 hPa
Clouds: Clear
Visibility: 14 km
2024/04/20 07:53 KLVK 200753Z AUTO 30006KT 9SM CLR 12/09 A2998 RMK AO2 SLP148 T01170089 402330089